CMA CGM La Boussole — A8FZ6 — position and weather

sailwx.info

Track history (hours):
 
Tides and Currents Weather Stations Pressure Air Temp Water Temp Dewpoint Dewpoint Depression Visibility Wind Speed Wind Dir Waves Ship Positions

CMA CGM La Boussole

Last reported at 2017-Feb-23 04:07 UTC. Time now 2017-Feb-25 13:48 UTC.
Position N 35°57' W 005°44'.

Length 210.1 m; beam 30.2 m; draft 11.5 m.

Type: Ship (hazmat cat A). MMSI: 636017045.

Date/timePositionNaut miles runAvg speedWind from/ knotsBaromVisibWave heightAir tempDewpointWater temp
2017-Feb-23 04:07N 35°57' W 005°44'815.0
2017-Feb-23 03:33N 35°57' W 005°34'5 4.9
2017-Feb-23 02:31N 35°54' W 005°30'0 0.0
2017-Feb-23 01:31N 35°54' W 005°30'0 0.0
2017-Feb-22 23:19N 35°54' W 005°30'0 0.0
2017-Feb-22 22:07N 35°54' W 005°30'0 0.0
2017-Feb-22 21:31N 35°54' W 005°30'0 0.0
2017-Feb-22 20:10N 35°54' W 005°30'0 0.0
2017-Feb-22 19:31N 35°54' W 005°30'2 2.2
2017-Feb-22 18:33N 35°55' W 005°31'4 3.8
2017-Feb-22 17:33N 35°53' W 005°35'1 0.7
2017-Feb-22 16:33N 35°54' W 005°34'0 0.4
2017-Feb-22 15:33N 35°54' W 005°35'2 1.9
2017-Feb-22 14:29N 35°55' W 005°34'4 4.5
2017-Feb-22 13:33N 35°58' W 005°30'10 9.7
2017-Feb-22 12:33N 36°01' W 005°19'1212.1
2017-Feb-22 11:33N 36°05' W 005°04'208 7.9
2017-Feb-21 09:14N 37°15' W 001°00'1217.2
2017-Feb-21 08:33N 37°23' W 000°49'1717.3
2017-Feb-21 07:33N 37°35' W 000°33'11113.9
2017-Feb-20 23:33N 39°25' W 000°17'2 2.0
2017-Feb-20 22:33N 39°26' W 000°19'0 0.0
2017-Feb-20 21:33N 39°26' W 000°19'0 0.0
2017-Feb-20 19:12N 39°26' W 000°19'0 0.0
2017-Feb-20 18:33N 39°26' W 000°19'0 0.0
2017-Feb-20 17:33N 39°26' W 000°19'0 0.0
2017-Feb-20 16:30N 39°26' W 000°19'0 0.0
2017-Feb-20 15:30N 39°26' W 000°19'0 0.0
2017-Feb-20 14:30N 39°26' W 000°19'0 0.0
2017-Feb-20 13:12N 39°26' W 000°19'0 0.0
2017-Feb-20 12:21N 39°26' W 000°19'0 0.0
2017-Feb-20 07:15N 39°26' W 000°19'0 0.0
2017-Feb-20 06:15N 39°26' W 000°19'0 0.0
2017-Feb-20 05:33N 39°26' W 000°19'0 0.0
2017-Feb-20 04:33N 39°26' W 000°19'0 0.0
2017-Feb-20 03:27N 39°26' W 000°19'0 0.0
2017-Feb-20 02:33N 39°26' W 000°19'0 0.0
2017-Feb-20 01:33N 39°26' W 000°19'0 0.0
2017-Feb-20 00:33N 39°26' W 000°19'0 0.0
2017-Feb-19 23:33N 39°26' W 000°19'2 2.5
2017-Feb-19 22:33N 39°25' W 000°16'9 3.0
2017-Feb-19 19:29N 39°25' W 000°04'2 0.6
2017-Feb-19 16:33N 39°25' W 000°06'7819.0
2017-Feb-19 12:28N 40°20' E 001°05'1820.1
2017-Feb-19 11:33N 40°33' E 001°23'2120.6
2017-Feb-19 10:33N 40°48' E 001°41'1919.2
2017-Feb-19 09:33N 41°03' E 001°56'20 1.7
2017-Feb-18 21:25N 41°21' E 002°10'4 4.6
2017-Feb-18 20:33N 41°17' E 002°11'5 5.1
2017-Feb-18 19:31N 41°14' E 002°17'0 0.3
2017-Feb-18 18:33N 41°15' E 002°17'0 0.2
2017-Feb-18 16:32N 41°15' E 002°18'0 0.2
2017-Feb-18 15:33N 41°15' E 002°17'0 0.4
2017-Feb-18 14:26N 41°14' E 002°18'0 0.5
2017-Feb-18 13:33N 41°14' E 002°18'1 0.5
2017-Feb-18 12:33N 41°14' E 002°19'1 0.5
2017-Feb-18 11:33N 41°14' E 002°20'1 0.6
2017-Feb-18 10:33N 41°14' E 002°20'2 0.8
2017-Feb-18 08:19N 41°13' E 002°23'0 0.1
2017-Feb-18 06:21N 41°13' E 002°22'1 1.0
2017-Feb-18 05:33N 41°14' E 002°23'1 1.5
2017-Feb-18 04:33N 41°13' E 002°25'2 2.4
2017-Feb-18 03:33N 41°12' E 002°28'1 0.8
2017-Feb-18 02:28N 41°12' E 002°29'2 0.9
2017-Feb-18 00:33N 41°12' E 002°27'3 1.0
2017-Feb-17 21:33N 41°13' E 002°23'1 0.8
2017-Feb-17 20:33N 41°13' E 002°22'1 0.6
2017-Feb-17 19:33N 41°13' E 002°22'1 0.6
2017-Feb-17 18:22N 41°14' E 002°23'2 0.4
2017-Feb-17 14:32N 41°15' E 002°24'1212.0
2017-Feb-17 13:33N 41°24' E 002°34'1413.0
2017-Feb-17 12:31N 41°32' E 002°49'1613.3
2017-Feb-17 11:20N 41°41' E 003°06'13012.8
2017-Feb-17 01:12N 43°22' E 004°58'2 0.2
2017-Feb-16 09:24N 43°23' E 004°56'911.2
2017-Feb-16 08:33N 43°15' E 005°01'7418.4
2017-Feb-16 04:33N 42°57' E 006°39'2120.7
2017-Feb-16 03:33N 43°09' E 007°02'2121.1
2017-Feb-16 02:33N 43°21' E 007°26'2221.2
2017-Feb-16 01:32N 43°34' E 007°50'2221.3
2017-Feb-16 00:29N 43°48' E 008°14'2021.1
2017-Feb-15 23:33N 44°01' E 008°34'2019.7
2017-Feb-15 22:33N 44°16' E 008°52'8 8.4
2017-Feb-15 21:34N 44°24' E 008°54'0 0.0
2017-Feb-15 20:33N 44°24' E 008°54'0 0.0
2017-Feb-15 19:30N 44°24' E 008°54'0 0.0
2017-Feb-15 18:27N 44°24' E 008°54'0 0.0
2017-Feb-15 17:33N 44°24' E 008°54'0 0.0
2017-Feb-15 16:33N 44°24' E 008°54'0 0.0
2017-Feb-15 15:33N 44°24' E 008°54'0 0.0
2017-Feb-15 14:30N 44°24' E 008°54'0 0.0
2017-Feb-15 13:33N 44°24' E 008°54'0 0.0
2017-Feb-15 12:33N 44°24' E 008°54'0 0.0
2017-Feb-15 11:33N 44°24' E 008°54'6 6.0
2017-Feb-15 10:33N 44°20' E 008°60'0 0.2
2017-Feb-15 09:33N 44°20' E 008°60'1716.6
2017-Feb-15 08:33N 44°07' E 009°14'2020.5
2017-Feb-15 07:33N 43°51' E 009°32'2120.6
2017-Feb-15 06:34N 43°35' E 009°50'1717.1
2017-Feb-15 05:33N 43°31' E 010°13'5 4.8
2017-Feb-15 04:29N 43°35' E 010°18'0 0.0
2017-Feb-15 03:32N 43°35' E 010°18'0 0.0
2017-Feb-15 02:32N 43°35' E 010°18'0 0.0
2017-Feb-15 01:32N 43°35' E 010°18'0 0.0
2017-Feb-15 00:32N 43°35' E 010°18'0 0.0
2017-Feb-14 23:32N 43°35' E 010°18'0 0.0
2017-Feb-14 22:32N 43°35' E 010°18'0 0.0
2017-Feb-14 21:32N 43°35' E 010°18'0 0.0
2017-Feb-14 20:32N 43°35' E 010°18'0 0.0
2017-Feb-14 19:32N 43°35' E 010°18'0 0.0
2017-Feb-14 18:29N 43°35' E 010°18'0 0.0
2017-Feb-14 17:32N 43°35' E 010°18'0 0.0
2017-Feb-14 16:32N 43°35' E 010°18'0 0.0
2017-Feb-14 15:32N 43°35' E 010°18'0 0.0
2017-Feb-14 14:32N 43°35' E 010°18'0 0.0
2017-Feb-14 13:32N 43°35' E 010°18'0 0.0
2017-Feb-14 12:32N 43°35' E 010°18'0 0.0
2017-Feb-14 11:32N 43°35' E 010°18'0 0.0
2017-Feb-14 10:33N 43°35' E 010°18'5 5.1
2017-Feb-14 09:33N 43°30' E 010°14'1615.9
2017-Feb-14 08:34N 43°19' E 009°59'2019.5
2017-Feb-14 07:33N 43°13' E 009°34'1919.0
2017-Feb-14 06:33N 43°06' E 009°10'33819.4
2017-Feb-13 13:07N 39°16' E 003°40'1119.6
2017-Feb-13 12:33N 39°10' E 003°28'2019.6
2017-Feb-13 11:33N 38°60' E 003°07'2020.4
2017-Feb-13 10:33N 38°49' E 002°45'2121.0
2017-Feb-13 09:33N 38°38' E 002°22'5021.2
2017-Feb-13 07:11N 38°11' E 001°28'5620.9
2017-Feb-13 04:31N 37°42' E 000°28'  
Track history (hours):
 
Tides and Currents Weather Stations Pressure Air Temp Water Temp Dewpoint Dewpoint Depression Visibility Wind Speed Wind Dir Waves Ship Positions

CMA CGM La Boussole

Last reported at 2017-Feb-23 04:07 UTC. Time now 2017-Feb-25 13:48 UTC.
Position N 35°57' W 005°44'.

Length 210.1 m; beam 30.2 m; draft 11.5 m.

Type: Ship (hazmat cat A). MMSI: 636017045.

Date/timePositionNaut miles runAvg speedWind from/ knotsBaromVisibWave heightAir tempDewpointWater temp
2017-Feb-23 04:07N 35°57' W 005°44'815.0
2017-Feb-23 03:33N 35°57' W 005°34'5 4.9
2017-Feb-23 02:31N 35°54' W 005°30'0 0.0
2017-Feb-23 01:31N 35°54' W 005°30'0 0.0
2017-Feb-22 23:19N 35°54' W 005°30'0 0.0
2017-Feb-22 22:07N 35°54' W 005°30'0 0.0
2017-Feb-22 21:31N 35°54' W 005°30'0 0.0
2017-Feb-22 20:10N 35°54' W 005°30'0 0.0
2017-Feb-22 19:31N 35°54' W 005°30'2 2.2
2017-Feb-22 18:33N 35°55' W 005°31'4 3.8
2017-Feb-22 17:33N 35°53' W 005°35'1 0.7
2017-Feb-22 16:33N 35°54' W 005°34'0 0.4
2017-Feb-22 15:33N 35°54' W 005°35'2 1.9
2017-Feb-22 14:29N 35°55' W 005°34'4 4.5
2017-Feb-22 13:33N 35°58' W 005°30'10 9.7
2017-Feb-22 12:33N 36°01' W 005°19'1212.1
2017-Feb-22 11:33N 36°05' W 005°04'208 7.9
2017-Feb-21 09:14N 37°15' W 001°00'1217.2
2017-Feb-21 08:33N 37°23' W 000°49'1717.3
2017-Feb-21 07:33N 37°35' W 000°33'11113.9
2017-Feb-20 23:33N 39°25' W 000°17'2 2.0
2017-Feb-20 22:33N 39°26' W 000°19'0 0.0
2017-Feb-20 21:33N 39°26' W 000°19'0 0.0
2017-Feb-20 19:12N 39°26' W 000°19'0 0.0
2017-Feb-20 18:33N 39°26' W 000°19'0 0.0
2017-Feb-20 17:33N 39°26' W 000°19'0 0.0
2017-Feb-20 16:30N 39°26' W 000°19'0 0.0
2017-Feb-20 15:30N 39°26' W 000°19'0 0.0
2017-Feb-20 14:30N 39°26' W 000°19'0 0.0
2017-Feb-20 13:12N 39°26' W 000°19'0 0.0
2017-Feb-20 12:21N 39°26' W 000°19'0 0.0
2017-Feb-20 07:15N 39°26' W 000°19'0 0.0
2017-Feb-20 06:15N 39°26' W 000°19'0 0.0
2017-Feb-20 05:33N 39°26' W 000°19'0 0.0
2017-Feb-20 04:33N 39°26' W 000°19'0 0.0
2017-Feb-20 03:27N 39°26' W 000°19'0 0.0
2017-Feb-20 02:33N 39°26' W 000°19'0 0.0
2017-Feb-20 01:33N 39°26' W 000°19'0 0.0
2017-Feb-20 00:33N 39°26' W 000°19'0 0.0
2017-Feb-19 23:33N 39°26' W 000°19'2 2.5
2017-Feb-19 22:33N 39°25' W 000°16'9 3.0
2017-Feb-19 19:29N 39°25' W 000°04'2 0.6
2017-Feb-19 16:33N 39°25' W 000°06'7819.0
2017-Feb-19 12:28N 40°20' E 001°05'1820.1
2017-Feb-19 11:33N 40°33' E 001°23'2120.6
2017-Feb-19 10:33N 40°48' E 001°41'1919.2
2017-Feb-19 09:33N 41°03' E 001°56'20 1.7
2017-Feb-18 21:25N 41°21' E 002°10'4 4.6
2017-Feb-18 20:33N 41°17' E 002°11'5 5.1
2017-Feb-18 19:31N 41°14' E 002°17'0 0.3
2017-Feb-18 18:33N 41°15' E 002°17'0 0.2
2017-Feb-18 16:32N 41°15' E 002°18'0 0.2
2017-Feb-18 15:33N 41°15' E 002°17'0 0.4
2017-Feb-18 14:26N 41°14' E 002°18'0 0.5
2017-Feb-18 13:33N 41°14' E 002°18'1 0.5
2017-Feb-18 12:33N 41°14' E 002°19'1 0.5
2017-Feb-18 11:33N 41°14' E 002°20'1 0.6
2017-Feb-18 10:33N 41°14' E 002°20'2 0.8
2017-Feb-18 08:19N 41°13' E 002°23'0 0.1
2017-Feb-18 06:21N 41°13' E 002°22'1 1.0
2017-Feb-18 05:33N 41°14' E 002°23'1 1.5
2017-Feb-18 04:33N 41°13' E 002°25'2 2.4
2017-Feb-18 03:33N 41°12' E 002°28'1 0.8
2017-Feb-18 02:28N 41°12' E 002°29'2 0.9
2017-Feb-18 00:33N 41°12' E 002°27'3 1.0
2017-Feb-17 21:33N 41°13' E 002°23'1 0.8
2017-Feb-17 20:33N 41°13' E 002°22'1 0.6
2017-Feb-17 19:33N 41°13' E 002°22'1 0.6
2017-Feb-17 18:22N 41°14' E 002°23'2 0.4
2017-Feb-17 14:32N 41°15' E 002°24'1212.0
2017-Feb-17 13:33N 41°24' E 002°34'1413.0
2017-Feb-17 12:31N 41°32' E 002°49'1613.3
2017-Feb-17 11:20N 41°41' E 003°06'13012.8
2017-Feb-17 01:12N 43°22' E 004°58'2 0.2
2017-Feb-16 09:24N 43°23' E 004°56'911.2
2017-Feb-16 08:33N 43°15' E 005°01'7418.4
2017-Feb-16 04:33N 42°57' E 006°39'2120.7
2017-Feb-16 03:33N 43°09' E 007°02'2121.1
2017-Feb-16 02:33N 43°21' E 007°26'2221.2
2017-Feb-16 01:32N 43°34' E 007°50'2221.3
2017-Feb-16 00:29N 43°48' E 008°14'2021.1
2017-Feb-15 23:33N 44°01' E 008°34'2019.7
2017-Feb-15 22:33N 44°16' E 008°52'8 8.4
2017-Feb-15 21:34N 44°24' E 008°54'0 0.0
2017-Feb-15 20:33N 44°24' E 008°54'0 0.0
2017-Feb-15 19:30N 44°24' E 008°54'0 0.0
2017-Feb-15 18:27N 44°24' E 008°54'0 0.0
2017-Feb-15 17:33N 44°24' E 008°54'0 0.0
2017-Feb-15 16:33N 44°24' E 008°54'0 0.0
2017-Feb-15 15:33N 44°24' E 008°54'0 0.0
2017-Feb-15 14:30N 44°24' E 008°54'0 0.0
2017-Feb-15 13:33N 44°24' E 008°54'0 0.0
2017-Feb-15 12:33N 44°24' E 008°54'0 0.0
2017-Feb-15 11:33N 44°24' E 008°54'6 6.0
2017-Feb-15 10:33N 44°20' E 008°60'0 0.2
2017-Feb-15 09:33N 44°20' E 008°60'1716.6
2017-Feb-15 08:33N 44°07' E 009°14'2020.5
2017-Feb-15 07:33N 43°51' E 009°32'2120.6
2017-Feb-15 06:34N 43°35' E 009°50'1717.1
2017-Feb-15 05:33N 43°31' E 010°13'5 4.8
2017-Feb-15 04:29N 43°35' E 010°18'0 0.0
2017-Feb-15 03:32N 43°35' E 010°18'0 0.0
2017-Feb-15 02:32N 43°35' E 010°18'0 0.0
2017-Feb-15 01:32N 43°35' E 010°18'0 0.0
2017-Feb-15 00:32N 43°35' E 010°18'0 0.0
2017-Feb-14 23:32N 43°35' E 010°18'0 0.0
2017-Feb-14 22:32N 43°35' E 010°18'0 0.0
2017-Feb-14 21:32N 43°35' E 010°18'0 0.0
2017-Feb-14 20:32N 43°35' E 010°18'0 0.0
2017-Feb-14 19:32N 43°35' E 010°18'0 0.0
2017-Feb-14 18:29N 43°35' E 010°18'0 0.0
2017-Feb-14 17:32N 43°35' E 010°18'0 0.0
2017-Feb-14 16:32N 43°35' E 010°18'0 0.0
2017-Feb-14 15:32N 43°35' E 010°18'0 0.0
2017-Feb-14 14:32N 43°35' E 010°18'0 0.0
2017-Feb-14 13:32N 43°35' E 010°18'0 0.0
2017-Feb-14 12:32N 43°35' E 010°18'0 0.0
2017-Feb-14 11:32N 43°35' E 010°18'0 0.0
2017-Feb-14 10:33N 43°35' E 010°18'5 5.1
2017-Feb-14 09:33N 43°30' E 010°14'1615.9
2017-Feb-14 08:34N 43°19' E 009°59'2019.5
2017-Feb-14 07:33N 43°13' E 009°34'1919.0
2017-Feb-14 06:33N 43°06' E 009°10'33819.4
2017-Feb-13 13:07N 39°16' E 003°40'1119.6
2017-Feb-13 12:33N 39°10' E 003°28'2019.6
2017-Feb-13 11:33N 38°60' E 003°07'2020.4
2017-Feb-13 10:33N 38°49' E 002°45'2121.0
2017-Feb-13 09:33N 38°38' E 002°22'5021.2
2017-Feb-13 07:11N 38°11' E 001°28'5620.9
2017-Feb-13 04:31N 37°42' E 000°28'  

Dump ship's entire track history